createdAt,value
2022-09-01T00:00:21.330Z,102270.11
2022-09-01T00:03:38.651Z,102270.09
2022-09-01T00:06:57.442Z,102261.46
2022-09-01T00:10:10.495Z,102258.73
2022-09-01T00:13:20.036Z,102258.01
2022-09-01T00:16:11.745Z,102258.65
2022-09-01T00:19:13.890Z,102255.31
2022-09-01T00:22:12.178Z,102251.03
2022-09-01T00:25:18.394Z,102249.69
2022-09-01T00:28:30.302Z,102244.67
2022-09-01T00:31:40.774Z,102242.57
2022-09-01T00:34:51.706Z,102242.65
2022-09-01T00:37:51.694Z,102241.65
2022-09-01T00:41:03.476Z,102238.23
2022-09-01T00:44:17.997Z,102236.48
2022-09-01T00:47:44.972Z,102241.81
2022-09-01T00:51:00.160Z,102240.16
2022-09-01T00:54:23.784Z,102240.65
2022-09-01T00:57:27.485Z,102236.89
2022-09-01T01:00:15.695Z,102233.64
2022-09-01T01:03:24.343Z,102228.82
2022-09-01T01:06:29.807Z,102226.91
2022-09-01T01:09:47.011Z,102227.05
2022-09-01T01:12:45.329Z,102226.75
2022-09-01T01:16:58.327Z,102217.38
2022-09-01T01:20:35.794Z,102213.02
2022-09-01T01:23:50.457Z,102207.73
2022-09-01T01:27:01.493Z,102204.03
2022-09-01T01:30:00.336Z,102203.25
2022-09-01T01:32:57.441Z,102199.67
2022-09-01T01:36:07.416Z,102194.64
2022-09-01T01:39:12.129Z,102194.98
2022-09-01T01:42:16.248Z,102187.97
2022-09-01T01:45:28.392Z,102182.73
2022-09-01T01:48:40.453Z,102179.35
2022-09-01T01:51:24.505Z,102175.27
2022-09-01T01:54:33.265Z,102176.27
2022-09-01T01:57:08.102Z,102173.39
2022-09-01T02:00:18.927Z,102172.84
2022-09-01T02:03:24.527Z,102169.06
2022-09-01T02:06:13.617Z,102172.31
2022-09-01T02:09:08.585Z,102172.91
2022-09-01T02:11:40.604Z,102175.73
2022-09-01T02:15:07.317Z,102172.76
2022-09-01T02:22:44.777Z,102178.95
2022-09-01T02:29:58.307Z,102169.38
2022-09-01T02:33:08.658Z,102170.24
2022-09-01T02:36:20.318Z,102171.42
2022-09-01T02:43:31.574Z,102170.86
2022-09-01T02:46:15.038Z,102172.33
2022-09-01T02:49:04.915Z,102171.40
2022-09-01T02:51:53.505Z,102171.73
2022-09-01T02:55:02.699Z,102167.33
2022-09-01T02:57:40.589Z,102168.91
2022-09-01T03:00:31.033Z,102170.44
2022-09-01T03:03:39.249Z,102171.15
2022-09-01T03:06:33.750Z,102165.69
2022-09-01T03:09:08.742Z,102165.96
2022-09-01T03:12:20.973Z,102163.67
2022-09-01T03:15:00.741Z,102160.50
2022-09-01T03:18:12.418Z,102159.73
2022-09-01T03:21:06.412Z,102160.58
2022-09-01T03:24:43.129Z,102159.90
2022-09-01T03:28:02.958Z,102155.98
2022-09-01T03:30:40.363Z,102149.48
2022-09-01T03:33:29.701Z,102151.55
2022-09-01T03:36:05.284Z,102150.98
2022-09-01T03:38:43.349Z,102148.52
2022-09-01T03:41:28.386Z,102142.89
2022-09-01T03:44:33.470Z,102147.83
2022-09-01T03:47:25.673Z,102150.04
2022-09-01T03:50:38.739Z,102143.73
2022-09-01T03:53:28.161Z,102141.69
2022-09-01T04:01:00.403Z,102140.58
2022-09-01T04:03:40.802Z,102138.89
2022-09-01T04:11:18.094Z,102133.42
2022-09-01T04:14:02.200Z,102127.23
2022-09-01T04:17:30.665Z,102122.58
2022-09-01T04:20:48.098Z,102118.30
2022-09-01T04:23:46.829Z,102118.13
2022-09-01T04:26:30.850Z,102113.95
2022-09-01T04:29:33.847Z,102114.86
2022-09-01T04:32:46.442Z,102110.27
2022-09-01T04:35:40.240Z,102109.23
2022-09-01T04:38:37.390Z,102112.95
2022-09-01T04:41:47.558Z,102112.98
2022-09-01T04:45:20.413Z,102115.20
2022-09-01T04:48:31.268Z,102112.04
2022-09-01T04:51:53.147Z,102111.63
2022-09-01T04:54:46.561Z,102112.92
2022-09-01T04:58:00.468Z,102114.70
2022-09-01T05:01:17.831Z,102115.15
2022-09-01T05:04:16.619Z,102115.30
2022-09-01T05:07:29.710Z,102118.50
2022-09-01T05:15:12.575Z,102118.30
2022-09-01T05:18:24.127Z,102119.85
2022-09-01T05:25:54.633Z,102123.72
2022-09-01T05:33:57.705Z,102130.19
2022-09-01T05:36:59.178Z,102127.86
2022-09-01T05:41:03.070Z,102130.20
2022-09-01T06:30:45.587Z,102126.48
2022-09-01T07:00:19.433Z,102131.77
2022-09-01T07:01:31.935Z,102127.80
2022-09-01T08:22:26.047Z,102132.98
2022-09-01T09:05:26.337Z,102105.19
2022-09-01T09:08:11.343Z,102107.50
2022-09-01T09:11:01.695Z,102101.90
2022-09-01T09:14:32.211Z,102102.63
2022-09-01T09:26:08.772Z,102089.56
2022-09-01T09:39:36.945Z,102073.73
2022-09-01T09:42:44.312Z,102069.34
2022-09-01T09:46:30.259Z,102062.13
2022-09-01T09:49:59.599Z,102056.17
2022-09-01T09:55:41.045Z,102053.95
2022-09-01T09:58:31.704Z,102056.17
2022-09-01T10:01:54.411Z,102055.82
2022-09-01T10:04:45.432Z,102050.14
2022-09-01T10:08:20.420Z,102046.11
2022-09-01T10:25:29.127Z,102040.02
2022-09-01T10:33:21.026Z,102033.73
2022-09-01T11:16:14.133Z,101997.58
2022-09-01T11:21:41.876Z,101993.30
2022-09-01T11:29:10.403Z,101985.27
2022-09-01T11:47:23.404Z,101986.95
2022-09-01T11:54:29.508Z,101987.10
2022-09-01T12:02:06.691Z,101980.70
2022-09-01T12:04:45.160Z,101979.81
2022-09-01T12:07:59.606Z,101977.13
2022-09-01T12:10:42.015Z,101975.77
2022-09-01T12:13:31.727Z,101972.33
2022-09-01T12:16:19.450Z,101977.41
2022-09-01T12:19:09.840Z,101969.99
2022-09-01T12:28:55.986Z,101966.08
2022-09-01T12:31:29.795Z,101964.10
2022-09-01T12:34:04.341Z,101960.32
2022-09-01T12:36:41.094Z,101960.40
2022-09-01T12:39:27.499Z,101957.02
2022-09-01T12:42:11.025Z,101948.52
2022-09-01T12:44:54.389Z,101941.90
2022-09-01T12:47:51.118Z,101942.38
2022-09-01T12:52:07.629Z,101940.98
2022-09-01T12:58:26.109Z,101937.86
2022-09-01T13:05:58.563Z,101929.72
2022-09-01T13:14:25.299Z,101927.34
2022-09-01T13:17:03.304Z,101920.73
2022-09-01T13:19:35.280Z,101914.08
2022-09-01T13:22:45.737Z,101916.61
2022-09-01T13:25:17.319Z,101917.89
2022-09-01T13:27:47.436Z,101914.04
2022-09-01T13:30:23.753Z,101908.53
2022-09-01T13:41:21.949Z,101899.14
2022-09-01T13:43:54.026Z,101895.33
2022-09-01T13:46:58.891Z,101895.73
2022-09-01T13:50:12.008Z,101898.83
2022-09-01T13:52:55.239Z,101894.53
2022-09-01T13:55:41.798Z,101895.27
2022-09-01T13:58:12.267Z,101897.11
2022-09-01T14:00:54.858Z,101893.38
2022-09-01T14:03:31.813Z,101896.02
2022-09-01T14:10:51.433Z,101891.64
2022-09-01T14:13:45.226Z,101886.06
2022-09-01T14:16:15.878Z,101882.13
2022-09-01T14:18:45.868Z,101876.79
2022-09-01T14:26:17.542Z,101868.73
2022-09-01T14:30:31.240Z,101872.65
2022-09-01T14:34:11.861Z,101871.74
2022-09-01T15:00:11.856Z,101856.63
2022-09-01T15:03:18.236Z,101851.16
2022-09-01T15:06:26.888Z,101848.59
2022-09-01T15:09:26.935Z,101842.45
2022-09-01T15:17:07.661Z,101848.08
2022-09-01T15:19:40.450Z,101843.45
2022-09-01T15:22:19.073Z,101836.75
2022-09-01T15:33:34.403Z,101824.25
2022-09-01T15:40:17.126Z,101812.52
2022-09-01T15:42:52.351Z,101815.15
2022-09-01T15:45:27.584Z,101814.80
2022-09-01T15:48:35.538Z,101810.17
2022-09-01T15:52:11.305Z,101810.32
2022-09-01T15:54:40.812Z,101806.06
2022-09-01T15:57:53.448Z,101804.54
2022-09-01T16:00:27.763Z,101797.59
2022-09-01T16:10:35.080Z,101798.05
2022-09-01T16:13:17.311Z,101794.38
2022-09-01T16:19:53.643Z,101795.35
2022-09-01T16:22:51.900Z,101792.70
2022-09-01T16:26:27.711Z,101792.50
2022-09-01T16:30:26.722Z,101789.89
2022-09-01T16:38:17.387Z,101781.52
2022-09-01T16:40:54.155Z,101780.77
2022-09-01T16:43:29.653Z,101779.46
2022-09-01T16:46:54.237Z,101776.95
2022-09-01T16:49:30.618Z,101774.16
2022-09-01T16:52:12.843Z,101775.48
2022-09-01T16:55:13.541Z,101776.62
2022-09-01T16:58:05.925Z,101770.30
2022-09-01T17:01:03.771Z,101767.59
2022-09-01T17:03:42.474Z,101771.99
2022-09-01T17:06:37.427Z,101771.00
2022-09-01T17:09:16.978Z,101770.24
2022-09-01T17:15:40.300Z,101767.16
2022-09-01T17:18:23.081Z,101764.20
2022-09-01T17:21:09.395Z,101766.44
2022-09-01T17:23:46.470Z,101761.93
2022-09-01T17:26:25.309Z,101761.45
2022-09-01T17:28:58.847Z,101761.20
2022-09-01T17:31:41.455Z,101761.15
2022-09-01T17:34:43.830Z,101764.70
2022-09-01T17:37:23.584Z,101764.19
2022-09-01T17:40:48.240Z,101765.38
2022-09-01T17:43:25.769Z,101766.88
2022-09-01T17:46:03.928Z,101762.08
2022-09-01T17:48:43.492Z,101760.52
2022-09-01T17:51:25.411Z,101757.16
2022-09-01T17:54:14.932Z,101759.80
2022-09-01T17:56:51.995Z,101757.01
2022-09-01T17:59:30.446Z,101758.52
2022-09-01T18:02:12.863Z,101752.20
2022-09-01T18:04:56.222Z,101753.06
2022-09-01T18:08:04.302Z,101757.73
2022-09-01T18:10:40.778Z,101752.58
2022-09-01T18:13:49.529Z,101754.91
2022-09-01T18:16:29.374Z,101753.42
2022-09-01T18:19:07.472Z,101753.73
2022-09-01T18:21:49.245Z,101753.52
2022-09-01T18:24:43.946Z,101752.23
2022-09-01T18:28:05.358Z,101749.39
2022-09-01T18:31:02.452Z,101745.17
2022-09-01T18:34:03.674Z,101743.10
2022-09-01T18:36:44.991Z,101737.73
2022-09-01T18:39:22.738Z,101739.42
2022-09-01T18:42:15.402Z,101739.95
2022-09-01T18:44:58.025Z,101738.02
2022-09-01T18:47:58.145Z,101736.27
2022-09-01T18:50:43.763Z,101738.27
2022-09-01T18:53:30.080Z,101738.48
2022-09-01T18:56:06.185Z,101734.16
2022-09-01T18:58:57.453Z,101734.52
2022-09-01T19:01:54.255Z,101731.52
2022-09-01T19:04:31.013Z,101730.21
2022-09-01T19:07:10.900Z,101731.14
2022-09-01T19:09:58.448Z,101731.20
2022-09-01T19:12:48.787Z,101729.76
2022-09-01T19:15:24.377Z,101726.98
2022-09-01T19:18:13.341Z,101731.30
2022-09-01T19:20:56.160Z,101732.25
2022-09-01T19:23:39.053Z,101734.02
2022-09-01T19:26:21.082Z,101736.41
2022-09-01T19:28:57.319Z,101733.05
2022-09-01T19:31:34.237Z,101734.16
2022-09-01T19:34:15.319Z,101734.98
2022-09-01T19:36:56.497Z,101737.24
2022-09-01T19:39:38.473Z,101734.86
2022-09-01T19:42:15.623Z,101738.42
2022-09-01T19:45:10.887Z,101736.98
2022-09-01T19:48:02.205Z,101737.29
2022-09-01T19:50:38.315Z,101737.59
2022-09-01T19:53:38.921Z,101737.30
2022-09-01T19:56:13.339Z,101739.83
2022-09-01T19:59:13.447Z,101738.05
2022-09-01T20:02:10.000Z,101736.82
2022-09-01T20:05:11.519Z,101736.42
2022-09-01T20:08:02.944Z,101739.35
2022-09-01T20:10:56.511Z,101742.53
2022-09-01T20:13:52.002Z,101740.64
2022-09-01T20:16:44.373Z,101738.89
2022-09-01T20:19:26.411Z,101737.02
2022-09-01T20:22:24.060Z,101735.40
2022-09-01T20:25:37.511Z,101732.06
2022-09-01T20:28:24.207Z,101730.48
2022-09-01T20:31:16.919Z,101726.82
2022-09-01T20:34:13.987Z,101729.27
2022-09-01T20:36:48.916Z,101725.11
2022-09-01T20:40:04.043Z,101724.70
2022-09-01T20:42:42.213Z,101723.19
2022-09-01T20:45:42.652Z,101723.08
2022-09-01T20:48:15.912Z,101718.10
2022-09-01T20:51:07.616Z,101722.70
2022-09-01T20:54:01.411Z,101714.77
2022-09-01T20:57:05.602Z,101713.32
2022-09-01T20:59:41.452Z,101709.19
2022-09-01T21:02:38.289Z,101708.77
2022-09-01T21:05:17.212Z,101710.73
2022-09-01T21:08:14.213Z,101706.48
2022-09-01T21:11:43.692Z,101704.77
2022-09-01T21:15:06.851Z,101699.22
2022-09-01T21:18:31.884Z,101692.63
2022-09-01T21:21:42.246Z,101696.73
2022-09-01T21:24:46.280Z,101694.73
2022-09-01T21:28:20.057Z,101694.46
2022-09-01T21:31:19.687Z,101691.77
2022-09-01T21:34:16.683Z,101684.33
2022-09-01T21:37:23.203Z,101680.15
2022-09-01T21:40:24.723Z,101677.22
2022-09-01T21:43:19.360Z,101675.88
2022-09-01T21:46:10.212Z,101676.41
2022-09-01T21:50:13.562Z,101676.55
2022-09-01T21:53:14.833Z,101671.59
2022-09-01T21:55:57.079Z,101672.19
2022-09-01T22:03:09.875Z,101665.08
2022-09-01T22:06:12.942Z,101664.88
2022-09-01T22:08:45.019Z,101661.79
2022-09-01T22:11:15.855Z,101657.80
2022-09-01T22:17:12.817Z,101655.42
2022-09-01T22:20:03.676Z,101658.16
2022-09-01T22:23:02.559Z,101650.33
2022-09-01T22:26:15.655Z,101646.20
2022-09-01T22:28:50.912Z,101641.30
2022-09-01T22:31:27.232Z,101637.95
2022-09-01T22:34:05.946Z,101634.17
2022-09-01T22:36:46.512Z,101631.79
2022-09-01T22:39:32.444Z,101628.77
2022-09-01T22:42:42.168Z,101628.11
2022-09-01T22:45:33.454Z,101625.09
2022-09-01T22:52:25.717Z,101615.80
2022-09-01T22:55:03.662Z,101608.15
2022-09-01T22:57:46.637Z,101604.96
2022-09-01T23:00:42.083Z,101603.65
2022-09-01T23:03:25.571Z,101601.05
2022-09-01T23:06:21.898Z,101597.31
2022-09-01T23:09:23.133Z,101591.64
2022-09-01T23:12:04.732Z,101593.97
2022-09-01T23:15:29.828Z,101586.69
2022-09-01T23:18:03.190Z,101585.90
2022-09-01T23:20:37.297Z,101584.77
2022-09-01T23:23:15.361Z,101582.20
2022-09-01T23:25:53.331Z,101581.55
2022-09-01T23:28:42.610Z,101577.98
2022-09-01T23:31:26.540Z,101575.90
2022-09-01T23:34:08.251Z,101572.31
2022-09-01T23:36:59.190Z,101570.60
2022-09-01T23:40:06.882Z,101568.34
2022-09-01T23:43:15.138Z,101566.77
2022-09-01T23:59:52.712Z,101553.66
